sensor_id;sensor_type;location;lat;lon;timestamp;temperature;humidity
52899;DHT22;38763;53.096;6.062;2024-03-29T00:01:50;8.40;99.90
52899;DHT22;38763;53.096;6.062;2024-03-29T00:04:16;8.40;99.90
52899;DHT22;38763;53.096;6.062;2024-03-29T00:06:41;8.40;99.90
52899;DHT22;38763;53.096;6.062;2024-03-29T00:09:07;8.30;99.90
52899;DHT22;38763;53.096;6.062;2024-03-29T00:11:32;8.30;21.40
52899;DHT22;38763;53.096;6.062;2024-03-29T00:13:58;8.20;99.90
52899;DHT22;38763;53.096;6.062;2024-03-29T00:16:24;8.20;99.90
52899;DHT22;38763;53.096;6.062;2024-03-29T00:18:51;8.30;1.00
52899;DHT22;38763;53.096;6.062;2024-03-29T00:21:17;8.20;99.90
52899;DHT22;38763;53.096;6.062;2024-03-29T00:23:43;8.30;1.00
52899;DHT22;38763;53.096;6.062;2024-03-29T00:26:11;8.20;1.00
52899;DHT22;38763;53.096;6.062;2024-03-29T00:28:37;8.30;1.00
52899;DHT22;38763;53.096;6.062;2024-03-29T00:31:02;8.20;99.90
52899;DHT22;38763;53.096;6.062;2024-03-29T00:33:28;8.20;95.80
52899;DHT22;38763;53.096;6.062;2024-03-29T00:35:54;8.20;1.00
52899;DHT22;38763;53.096;6.062;2024-03-29T00:38:19;8.10;72.20
52899;DHT22;38763;53.096;6.062;2024-03-29T00:40:45;8.10;99.90
52899;DHT22;38763;53.096;6.062;2024-03-29T00:43:10;8.10;99.90
52899;DHT22;38763;53.096;6.062;2024-03-29T00:45:36;8.10;1.00
52899;DHT22;38763;53.096;6.062;2024-03-29T00:48:02;8.20;99.90
52899;DHT22;38763;53.096;6.062;2024-03-29T00:50:27;8.30;99.90
52899;DHT22;38763;53.096;6.062;2024-03-29T00:52:53;8.30;9.60
52899;DHT22;38763;53.096;6.062;2024-03-29T00:55:19;8.40;1.00
52899;DHT22;38763;53.096;6.062;2024-03-29T00:57:44;8.40;1.00
52899;DHT22;38763;53.096;6.062;2024-03-29T01:00:10;8.40;1.00
52899;DHT22;38763;53.096;6.062;2024-03-29T01:02:36;8.40;1.00
52899;DHT22;38763;53.096;6.062;2024-03-29T01:05:02;8.40;99.90
52899;DHT22;38763;53.096;6.062;2024-03-29T01:07:28;8.40;99.90
52899;DHT22;38763;53.096;6.062;2024-03-29T01:09:54;8.40;99.90
52899;DHT22;38763;53.096;6.062;2024-03-29T01:12:19;8.40;35.90
52899;DHT22;38763;53.096;6.062;2024-03-29T01:14:45;8.40;64.90
52899;DHT22;38763;53.096;6.062;2024-03-29T01:17:11;8.40;1.00
52899;DHT22;38763;53.096;6.062;2024-03-29T01:19:37;8.40;99.90
52899;DHT22;38763;53.096;6.062;2024-03-29T01:22:03;8.50;99.90
52899;DHT22;38763;53.096;6.062;2024-03-29T01:24:29;8.40;99.90
52899;DHT22;38763;53.096;6.062;2024-03-29T01:26:55;8.30;97.30
52899;DHT22;38763;53.096;6.062;2024-03-29T01:29:21;8.30;1.00
52899;DHT22;38763;53.096;6.062;2024-03-29T01:31:46;8.30;99.90
52899;DHT22;38763;53.096;6.062;2024-03-29T01:34:12;8.30;1.00
52899;DHT22;38763;53.096;6.062;2024-03-29T01:36:38;8.40;99.90
52899;DHT22;38763;53.096;6.062;2024-03-29T01:39:03;8.40;99.90
52899;DHT22;38763;53.096;6.062;2024-03-29T01:41:29;8.40;99.90
52899;DHT22;38763;53.096;6.062;2024-03-29T01:43:55;8.30;99.90
52899;DHT22;38763;53.096;6.062;2024-03-29T01:46:23;8.30;1.00
52899;DHT22;38763;53.096;6.062;2024-03-29T01:48:52;8.10;99.90
52899;DHT22;38763;53.096;6.062;2024-03-29T01:51:19;8.10;99.90
52899;DHT22;38763;53.096;6.062;2024-03-29T01:53:46;8.10;19.20
52899;DHT22;38763;53.096;6.062;2024-03-29T01:56:14;8.10;99.90
52899;DHT22;38763;53.096;6.062;2024-03-29T01:58:41;8.00;41.80
52899;DHT22;38763;53.096;6.062;2024-03-29T02:01:07;8.00;97.90
52899;DHT22;38763;53.096;6.062;2024-03-29T02:03:33;8.00;52.30
52899;DHT22;38763;53.096;6.062;2024-03-29T02:05:59;7.90;1.00
52899;DHT22;38763;53.096;6.062;2024-03-29T02:08:28;7.90;99.90
52899;DHT22;38763;53.096;6.062;2024-03-29T02:10:53;7.90;99.90
52899;DHT22;38763;53.096;6.062;2024-03-29T02:13:20;7.80;99.90
52899;DHT22;38763;53.096;6.062;2024-03-29T02:15:45;7.90;99.90
52899;DHT22;38763;53.096;6.062;2024-03-29T02:18:11;7.80;99.90
52899;DHT22;38763;53.096;6.062;2024-03-29T02:20:37;7.70;99.90
52899;DHT22;38763;53.096;6.062;2024-03-29T02:23:27;7.80;99.90
52899;DHT22;38763;53.096;6.062;2024-03-29T02:25:54;7.70;99.90
52899;DHT22;38763;53.096;6.062;2024-03-29T02:28:20;7.60;1.00
52899;DHT22;38763;53.096;6.062;2024-03-29T02:30:47;7.60;44.80
52899;DHT22;38763;53.096;6.062;2024-03-29T02:33:13;7.70;99.90
52899;DHT22;38763;53.096;6.062;2024-03-29T02:35:38;7.80;45.40
52899;DHT22;38763;53.096;6.062;2024-03-29T02:38:04;7.70;99.90
52899;DHT22;38763;53.096;6.062;2024-03-29T02:40:29;7.70;99.90
52899;DHT22;38763;53.096;6.062;2024-03-29T02:42:55;7.80;99.90
52899;DHT22;38763;53.096;6.062;2024-03-29T02:45:21;7.70;24.40
52899;DHT22;38763;53.096;6.062;2024-03-29T02:47:46;7.60;99.90
52899;DHT22;38763;53.096;6.062;2024-03-29T02:50:14;7.70;1.00
52899;DHT22;38763;53.096;6.062;2024-03-29T02:52:40;7.60;99.90
52899;DHT22;38763;53.096;6.062;2024-03-29T02:55:06;7.60;99.90
52899;DHT22;38763;53.096;6.062;2024-03-29T02:57:32;7.60;99.90
52899;DHT22;38763;53.096;6.062;2024-03-29T02:59:57;7.60;99.90
52899;DHT22;38763;53.096;6.062;2024-03-29T03:02:23;7.50;29.30
52899;DHT22;38763;53.096;6.062;2024-03-29T03:04:49;7.50;46.90
52899;DHT22;38763;53.096;6.062;2024-03-29T03:07:14;7.50;88.60
52899;DHT22;38763;53.096;6.062;2024-03-29T03:09:58;7.50;56.00
52899;DHT22;38763;53.096;6.062;2024-03-29T03:12:43;7.50;99.90
52899;DHT22;38763;53.096;6.062;2024-03-29T03:15:09;7.50;99.90
52899;DHT22;38763;53.096;6.062;2024-03-29T03:17:34;7.50;99.90
52899;DHT22;38763;53.096;6.062;2024-03-29T03:20:00;7.60;99.90
52899;DHT22;38763;53.096;6.062;2024-03-29T03:22:25;7.40;99.90
52899;DHT22;38763;53.096;6.062;2024-03-29T03:24:51;7.50;99.90
52899;DHT22;38763;53.096;6.062;2024-03-29T03:27:17;7.50;99.90
52899;DHT22;38763;53.096;6.062;2024-03-29T03:29:42;7.60;99.90
52899;DHT22;38763;53.096;6.062;2024-03-29T03:32:08;7.60;99.90
52899;DHT22;38763;53.096;6.062;2024-03-29T03:34:34;7.60;99.90
52899;DHT22;38763;53.096;6.062;2024-03-29T03:37:00;7.60;50.90
52899;DHT22;38763;53.096;6.062;2024-03-29T03:39:25;7.60;99.90
52899;DHT22;38763;53.096;6.062;2024-03-29T03:41:51;7.50;1.00
52899;DHT22;38763;53.096;6.062;2024-03-29T03:44:17;7.60;99.90
52899;DHT22;38763;53.096;6.062;2024-03-29T03:46:43;7.60;99.90
52899;DHT22;38763;53.096;6.062;2024-03-29T03:49:12;7.60;1.00
52899;DHT22;38763;53.096;6.062;2024-03-29T03:51:37;7.60;99.90
52899;DHT22;38763;53.096;6.062;2024-03-29T03:54:03;7.60;99.90
52899;DHT22;38763;53.096;6.062;2024-03-29T03:56:29;7.60;99.90
52899;DHT22;38763;53.096;6.062;2024-03-29T03:58:54;7.60;31.30
52899;DHT22;38763;53.096;6.062;2024-03-29T04:01:20;7.60;99.90
52899;DHT22;38763;53.096;6.062;2024-03-29T04:03:46;7.60;99.90
52899;DHT22;38763;53.096;6.062;2024-03-29T04:06:11;7.60;99.90
52899;DHT22;38763;53.096;6.062;2024-03-29T04:08:37;7.60;30.50
52899;DHT22;38763;53.096;6.062;2024-03-29T04:11:03;7.60;99.90
52899;DHT22;38763;53.096;6.062;2024-03-29T04:13:29;7.70;1.00
52899;DHT22;38763;53.096;6.062;2024-03-29T04:16:07;7.60;1.00
52899;DHT22;38763;53.096;6.062;2024-03-29T04:18:33;7.60;99.90
52899;DHT22;38763;53.096;6.062;2024-03-29T04:21:00;7.60;99.90
52899;DHT22;38763;53.096;6.062;2024-03-29T04:23:27;7.60;99.90
52899;DHT22;38763;53.096;6.062;2024-03-29T04:25:59;7.70;1.00
52899;DHT22;38763;53.096;6.062;2024-03-29T04:28:26;7.60;99.90
52899;DHT22;38763;53.096;6.062;2024-03-29T04:30:56;7.50;99.80
52899;DHT22;38763;53.096;6.062;2024-03-29T04:33:22;7.60;99.90
52899;DHT22;38763;53.096;6.062;2024-03-29T04:35:58;7.50;99.90
52899;DHT22;38763;53.096;6.062;2024-03-29T04:38:25;7.60;99.90
52899;DHT22;38763;53.096;6.062;2024-03-29T04:40:52;7.60;99.90
52899;DHT22;38763;53.096;6.062;2024-03-29T04:43:19;7.60;99.90
52899;DHT22;38763;53.096;6.062;2024-03-29T04:45:45;7.60;99.90
52899;DHT22;38763;53.096;6.062;2024-03-29T04:48:11;7.70;99.90
52899;DHT22;38763;53.096;6.062;2024-03-29T04:50:37;7.70;98.60
52899;DHT22;38763;53.096;6.062;2024-03-29T04:53:02;7.70;99.90
52899;DHT22;38763;53.096;6.062;2024-03-29T04:55:28;7.70;99.90
52899;DHT22;38763;53.096;6.062;2024-03-29T04:57:54;7.80;99.90
52899;DHT22;38763;53.096;6.062;2024-03-29T05:00:19;7.80;99.90
52899;DHT22;38763;53.096;6.062;2024-03-29T05:02:45;7.80;34.80
52899;DHT22;38763;53.096;6.062;2024-03-29T05:05:10;7.80;99.90
52899;DHT22;38763;53.096;6.062;2024-03-29T05:07:36;7.90;99.10
52899;DHT22;38763;53.096;6.062;2024-03-29T05:10:02;7.90;99.90
52899;DHT22;38763;53.096;6.062;2024-03-29T05:12:32;8.00;1.00
52899;DHT22;38763;53.096;6.062;2024-03-29T05:14:57;8.00;1.00
52899;DHT22;38763;53.096;6.062;2024-03-29T05:17:23;8.00;99.90
52899;DHT22;38763;53.096;6.062;2024-03-29T05:19:55;8.00;99.90
52899;DHT22;38763;53.096;6.062;2024-03-29T05:22:21;8.00;1.00
52899;DHT22;38763;53.096;6.062;2024-03-29T05:24:47;7.90;22.70
52899;DHT22;38763;53.096;6.062;2024-03-29T05:27:13;8.00;1.00
52899;DHT22;38763;53.096;6.062;2024-03-29T05:29:39;8.00;1.00
52899;DHT22;38763;53.096;6.062;2024-03-29T05:32:06;8.10;1.00
52899;DHT22;38763;53.096;6.062;2024-03-29T05:34:32;8.00;99.90
52899;DHT22;38763;53.096;6.062;2024-03-29T05:36:57;8.10;99.90
52899;DHT22;38763;53.096;6.062;2024-03-29T05:39:23;8.10;1.00
52899;DHT22;38763;53.096;6.062;2024-03-29T05:41:49;8.10;79.30
52899;DHT22;38763;53.096;6.062;2024-03-29T05:44:14;8.10;99.90
52899;DHT22;38763;53.096;6.062;2024-03-29T05:46:40;8.20;1.00
52899;DHT22;38763;53.096;6.062;2024-03-29T05:49:06;8.20;99.90
52899;DHT22;38763;53.096;6.062;2024-03-29T05:51:32;8.20;99.90
52899;DHT22;38763;53.096;6.062;2024-03-29T05:54:02;8.20;99.90
52899;DHT22;38763;53.096;6.062;2024-03-29T05:56:30;8.20;99.90
52899;DHT22;38763;53.096;6.062;2024-03-29T05:58:56;8.20;1.00
52899;DHT22;38763;53.096;6.062;2024-03-29T06:01:22;8.20;1.00
52899;DHT22;38763;53.096;6.062;2024-03-29T06:03:50;8.20;99.90
52899;DHT22;38763;53.096;6.062;2024-03-29T06:06:21;8.20;99.90
52899;DHT22;38763;53.096;6.062;2024-03-29T06:08:50;8.20;1.00
52899;DHT22;38763;53.096;6.062;2024-03-29T06:11:16;8.20;99.90
52899;DHT22;38763;53.096;6.062;2024-03-29T06:13:42;8.20;1.00
52899;DHT22;38763;53.096;6.062;2024-03-29T06:16:25;8.20;99.90
52899;DHT22;38763;53.096;6.062;2024-03-29T06:19:09;8.10;99.90
52899;DHT22;38763;53.096;6.062;2024-03-29T06:21:35;8.10;99.90
52899;DHT22;38763;53.096;6.062;2024-03-29T06:24:11;8.10;99.90
52899;DHT22;38763;53.096;6.062;2024-03-29T06:26:41;8.20;99.90
52899;DHT22;38763;53.096;6.062;2024-03-29T06:29:08;8.30;1.00
52899;DHT22;38763;53.096;6.062;2024-03-29T06:31:36;8.30;99.90
52899;DHT22;38763;53.096;6.062;2024-03-29T06:34:02;8.30;99.90
52899;DHT22;38763;53.096;6.062;2024-03-29T06:36:28;8.30;1.00
52899;DHT22;38763;53.096;6.062;2024-03-29T06:38:55;8.30;1.00
52899;DHT22;38763;53.096;6.062;2024-03-29T06:41:21;8.30;99.90
52899;DHT22;38763;53.096;6.062;2024-03-29T06:43:47;8.40;99.90
52899;DHT22;38763;53.096;6.062;2024-03-29T06:46:13;8.50;1.00
52899;DHT22;38763;53.096;6.062;2024-03-29T06:48:39;8.50;1.00
52899;DHT22;38763;53.096;6.062;2024-03-29T06:51:05;8.50;99.90
52899;DHT22;38763;53.096;6.062;2024-03-29T06:53:31;8.60;99.90
52899;DHT22;38763;53.096;6.062;2024-03-29T06:55:59;8.70;99.90
52899;DHT22;38763;53.096;6.062;2024-03-29T06:58:25;8.70;1.00
52899;DHT22;38763;53.096;6.062;2024-03-29T07:00:50;8.70;99.90
52899;DHT22;38763;53.096;6.062;2024-03-29T07:03:17;8.80;15.80
52899;DHT22;38763;53.096;6.062;2024-03-29T07:05:47;8.80;99.90
52899;DHT22;38763;53.096;6.062;2024-03-29T07:08:13;8.90;99.90
52899;DHT22;38763;53.096;6.062;2024-03-29T07:10:39;8.90;99.90
52899;DHT22;38763;53.096;6.062;2024-03-29T07:13:06;9.00;99.90
52899;DHT22;38763;53.096;6.062;2024-03-29T07:15:32;9.10;99.90
52899;DHT22;38763;53.096;6.062;2024-03-29T07:17:57;9.10;1.00
52899;DHT22;38763;53.096;6.062;2024-03-29T07:20:25;9.00;1.00
52899;DHT22;38763;53.096;6.062;2024-03-29T07:22:50;9.00;99.90
52899;DHT22;38763;53.096;6.062;2024-03-29T07:25:16;9.00;99.90
52899;DHT22;38763;53.096;6.062;2024-03-29T07:27:42;9.00;1.00
52899;DHT22;38763;53.096;6.062;2024-03-29T07:30:07;9.00;99.90
52899;DHT22;38763;53.096;6.062;2024-03-29T07:32:34;9.10;15.80
52899;DHT22;38763;53.096;6.062;2024-03-29T07:35:00;9.10;99.90
52899;DHT22;38763;53.096;6.062;2024-03-29T07:37:25;9.20;1.00
52899;DHT22;38763;53.096;6.062;2024-03-29T07:39:54;9.10;99.90
52899;DHT22;38763;53.096;6.062;2024-03-29T07:42:19;9.10;99.90
52899;DHT22;38763;53.096;6.062;2024-03-29T07:44:45;9.30;99.90
52899;DHT22;38763;53.096;6.062;2024-03-29T07:47:11;9.40;99.90
52899;DHT22;38763;53.096;6.062;2024-03-29T07:49:38;9.40;1.00
52899;DHT22;38763;53.096;6.062;2024-03-29T07:52:04;9.50;1.00
52899;DHT22;38763;53.096;6.062;2024-03-29T07:54:31;9.50;99.90
52899;DHT22;38763;53.096;6.062;2024-03-29T07:56:57;9.70;1.00
52899;DHT22;38763;53.096;6.062;2024-03-29T07:59:23;9.90;99.90
52899;DHT22;38763;53.096;6.062;2024-03-29T08:01:48;9.90;1.00
52899;DHT22;38763;53.096;6.062;2024-03-29T08:04:20;10.00;1.00
52899;DHT22;38763;53.096;6.062;2024-03-29T08:06:45;10.00;99.90
52899;DHT22;38763;53.096;6.062;2024-03-29T08:09:11;10.00;2.80
52899;DHT22;38763;53.096;6.062;2024-03-29T08:11:39;10.10;99.90
52899;DHT22;38763;53.096;6.062;2024-03-29T08:14:05;10.10;99.90
52899;DHT22;38763;53.096;6.062;2024-03-29T08:16:31;10.10;1.00
52899;DHT22;38763;53.096;6.062;2024-03-29T08:18:57;10.20;67.40
52899;DHT22;38763;53.096;6.062;2024-03-29T08:21:23;10.10;1.00
52899;DHT22;38763;53.096;6.062;2024-03-29T08:23:48;10.10;1.00
52899;DHT22;38763;53.096;6.062;2024-03-29T08:26:16;10.10;99.90
52899;DHT22;38763;53.096;6.062;2024-03-29T08:28:45;10.20;99.90
52899;DHT22;38763;53.096;6.062;2024-03-29T08:31:11;10.30;1.00
52899;DHT22;38763;53.096;6.062;2024-03-29T08:33:37;10.40;1.00
52899;DHT22;38763;53.096;6.062;2024-03-29T08:36:04;10.50;99.90
52899;DHT22;38763;53.096;6.062;2024-03-29T08:38:34;10.30;1.00
52899;DHT22;38763;53.096;6.062;2024-03-29T08:41:00;10.30;99.90
52899;DHT22;38763;53.096;6.062;2024-03-29T08:43:25;10.40;72.50
52899;DHT22;38763;53.096;6.062;2024-03-29T08:45:52;10.30;80.10
52899;DHT22;38763;53.096;6.062;2024-03-29T08:48:18;10.40;99.90
52899;DHT22;38763;53.096;6.062;2024-03-29T08:50:44;10.60;99.90
52899;DHT22;38763;53.096;6.062;2024-03-29T08:53:09;10.60;99.90
52899;DHT22;38763;53.096;6.062;2024-03-29T08:55:35;10.50;99.90
52899;DHT22;38763;53.096;6.062;2024-03-29T08:58:05;10.70;1.00
52899;DHT22;38763;53.096;6.062;2024-03-29T09:00:31;10.80;1.00
52899;DHT22;38763;53.096;6.062;2024-03-29T09:02:57;10.80;99.90
52899;DHT22;38763;53.096;6.062;2024-03-29T09:05:23;10.70;34.80
52899;DHT22;38763;53.096;6.062;2024-03-29T09:07:49;10.80;68.80
52899;DHT22;38763;53.096;6.062;2024-03-29T09:10:15;10.70;1.00
52899;DHT22;38763;53.096;6.062;2024-03-29T09:12:41;10.70;21.50
52899;DHT22;38763;53.096;6.062;2024-03-29T09:15:07;10.70;99.90
52899;DHT22;38763;53.096;6.062;2024-03-29T09:17:47;10.60;1.00
52899;DHT22;38763;53.096;6.062;2024-03-29T09:20:13;10.60;1.00
52899;DHT22;38763;53.096;6.062;2024-03-29T09:22:39;10.80;1.00
52899;DHT22;38763;53.096;6.062;2024-03-29T09:25:05;10.80;99.90
52899;DHT22;38763;53.096;6.062;2024-03-29T09:27:31;10.90;99.90
52899;DHT22;38763;53.096;6.062;2024-03-29T09:30:04;10.80;99.90
52899;DHT22;38763;53.096;6.062;2024-03-29T09:32:31;10.80;1.00
52899;DHT22;38763;53.096;6.062;2024-03-29T09:34:57;10.90;99.90
52899;DHT22;38763;53.096;6.062;2024-03-29T09:37:22;11.00;1.00
52899;DHT22;38763;53.096;6.062;2024-03-29T09:39:49;11.10;99.90
52899;DHT22;38763;53.096;6.062;2024-03-29T09:42:16;11.10;1.00
52899;DHT22;38763;53.096;6.062;2024-03-29T09:44:43;11.00;1.00
52899;DHT22;38763;53.096;6.062;2024-03-29T09:47:09;11.10;99.90
52899;DHT22;38763;53.096;6.062;2024-03-29T09:49:37;11.10;99.90
52899;DHT22;38763;53.096;6.062;2024-03-29T09:52:04;11.00;99.90
52899;DHT22;38763;53.096;6.062;2024-03-29T09:54:31;10.90;1.00
52899;DHT22;38763;53.096;6.062;2024-03-29T09:56:57;10.90;99.90
52899;DHT22;38763;53.096;6.062;2024-03-29T09:59:26;10.90;99.90
52899;DHT22;38763;53.096;6.062;2024-03-29T10:01:54;10.70;1.00
52899;DHT22;38763;53.096;6.062;2024-03-29T10:04:21;10.70;99.90
52899;DHT22;38763;53.096;6.062;2024-03-29T10:06:48;10.70;99.90
52899;DHT22;38763;53.096;6.062;2024-03-29T10:09:17;10.90;99.90
52899;DHT22;38763;53.096;6.062;2024-03-29T10:11:43;11.10;99.90
52899;DHT22;38763;53.096;6.062;2024-03-29T10:14:10;11.10;99.90
52899;DHT22;38763;53.096;6.062;2024-03-29T10:16:36;11.20;85.30
52899;DHT22;38763;53.096;6.062;2024-03-29T10:19:01;11.20;99.90
52899;DHT22;38763;53.096;6.062;2024-03-29T10:21:28;11.20;99.90
52899;DHT22;38763;53.096;6.062;2024-03-29T10:23:53;11.20;99.90
52899;DHT22;38763;53.096;6.062;2024-03-29T10:26:19;11.30;1.00
52899;DHT22;38763;53.096;6.062;2024-03-29T10:28:46;11.40;1.00
52899;DHT22;38763;53.096;6.062;2024-03-29T10:31:12;11.40;99.90
52899;DHT22;38763;53.096;6.062;2024-03-29T10:33:42;11.50;99.90
52899;DHT22;38763;53.096;6.062;2024-03-29T10:36:09;11.50;99.90
52899;DHT22;38763;53.096;6.062;2024-03-29T10:38:37;11.50;59.70
52899;DHT22;38763;53.096;6.062;2024-03-29T10:41:04;11.40;99.90
52899;DHT22;38763;53.096;6.062;2024-03-29T10:43:32;11.60;1.00
52899;DHT22;38763;53.096;6.062;2024-03-29T10:45:59;11.60;1.00
52899;DHT22;38763;53.096;6.062;2024-03-29T10:48:27;11.70;99.90
52899;DHT22;38763;53.096;6.062;2024-03-29T10:50:54;11.70;1.00
52899;DHT22;38763;53.096;6.062;2024-03-29T10:53:23;11.80;61.00
52899;DHT22;38763;53.096;6.062;2024-03-29T10:55:50;12.00;99.90
52899;DHT22;38763;53.096;6.062;2024-03-29T10:58:20;11.90;99.90
52899;DHT22;38763;53.096;6.062;2024-03-29T11:00:53;12.20;24.10
52899;DHT22;38763;53.096;6.062;2024-03-29T11:03:40;12.20;99.90
52899;DHT22;38763;53.096;6.062;2024-03-29T11:06:06;12.20;99.90
52899;DHT22;38763;53.096;6.062;2024-03-29T11:08:33;12.30;99.90
52899;DHT22;38763;53.096;6.062;2024-03-29T11:11:09;12.30;57.50
52899;DHT22;38763;53.096;6.062;2024-03-29T11:16:26;12.30;99.90
52899;DHT22;38763;53.096;6.062;2024-03-29T11:18:52;12.40;12.50
52899;DHT22;38763;53.096;6.062;2024-03-29T11:21:18;12.50;99.90
52899;DHT22;38763;53.096;6.062;2024-03-29T11:23:49;12.60;1.00
52899;DHT22;38763;53.096;6.062;2024-03-29T11:26:16;12.50;99.90
52899;DHT22;38763;53.096;6.062;2024-03-29T11:28:51;12.50;1.00
52899;DHT22;38763;53.096;6.062;2024-03-29T11:31:17;12.50;1.00
52899;DHT22;38763;53.096;6.062;2024-03-29T11:36:18;12.60;11.00
52899;DHT22;38763;53.096;6.062;2024-03-29T11:38:48;12.60;99.90
52899;DHT22;38763;53.096;6.062;2024-03-29T11:41:22;12.70;1.00
52899;DHT22;38763;53.096;6.062;2024-03-29T11:43:55;12.80;1.00
52899;DHT22;38763;53.096;6.062;2024-03-29T11:46:22;12.90;99.90
52899;DHT22;38763;53.096;6.062;2024-03-29T11:48:51;13.10;99.90
52899;DHT22;38763;53.096;6.062;2024-03-29T11:51:21;13.00;99.90
52899;DHT22;38763;53.096;6.062;2024-03-29T11:53:50;13.10;99.90
52899;DHT22;38763;53.096;6.062;2024-03-29T11:56:19;13.30;99.90
52899;DHT22;38763;53.096;6.062;2024-03-29T11:58:45;13.10;99.90
52899;DHT22;38763;53.096;6.062;2024-03-29T12:01:12;13.10;1.00
52899;DHT22;38763;53.096;6.062;2024-03-29T12:03:41;13.00;21.40
52899;DHT22;38763;53.096;6.062;2024-03-29T12:06:07;12.90;1.00
52899;DHT22;38763;53.096;6.062;2024-03-29T12:08:34;12.90;99.90
52899;DHT22;38763;53.096;6.062;2024-03-29T12:11:02;13.00;67.80
52899;DHT22;38763;53.096;6.062;2024-03-29T12:13:27;12.90;95.90
52899;DHT22;38763;53.096;6.062;2024-03-29T12:15:53;12.80;1.00
52899;DHT22;38763;53.096;6.062;2024-03-29T12:18:20;12.90;1.00
52899;DHT22;38763;53.096;6.062;2024-03-29T12:20:48;12.90;56.60
52899;DHT22;38763;53.096;6.062;2024-03-29T12:23:16;12.90;1.00
52899;DHT22;38763;53.096;6.062;2024-03-29T12:25:42;12.90;1.00
52899;DHT22;38763;53.096;6.062;2024-03-29T12:28:10;13.00;99.90
52899;DHT22;38763;53.096;6.062;2024-03-29T12:30:35;13.00;1.00
52899;DHT22;38763;53.096;6.062;2024-03-29T12:33:10;13.10;26.60
52899;DHT22;38763;53.096;6.062;2024-03-29T12:35:37;13.20;60.10
52899;DHT22;38763;53.096;6.062;2024-03-29T12:38:04;13.10;99.90
52899;DHT22;38763;53.096;6.062;2024-03-29T12:40:32;13.10;93.80
52899;DHT22;38763;53.096;6.062;2024-03-29T12:43:04;13.10;99.90
52899;DHT22;38763;53.096;6.062;2024-03-29T12:45:31;13.20;99.90
52899;DHT22;38763;53.096;6.062;2024-03-29T12:47:57;13.20;99.90
52899;DHT22;38763;53.096;6.062;2024-03-29T12:50:28;13.20;1.00
52899;DHT22;38763;53.096;6.062;2024-03-29T12:53:01;13.10;99.90
52899;DHT22;38763;53.096;6.062;2024-03-29T12:55:28;13.20;99.90
52899;DHT22;38763;53.096;6.062;2024-03-29T12:57:56;13.30;99.90
52899;DHT22;38763;53.096;6.062;2024-03-29T13:00:22;13.40;99.90
52899;DHT22;38763;53.096;6.062;2024-03-29T13:02:48;13.40;1.00
52899;DHT22;38763;53.096;6.062;2024-03-29T13:05:14;13.40;99.90
52899;DHT22;38763;53.096;6.062;2024-03-29T13:07:40;13.60;99.90
52899;DHT22;38763;53.096;6.062;2024-03-29T13:10:06;13.60;99.90
52899;DHT22;38763;53.096;6.062;2024-03-29T13:12:39;13.50;99.90
52899;DHT22;38763;53.096;6.062;2024-03-29T13:15:19;13.40;75.00
52899;DHT22;38763;53.096;6.062;2024-03-29T13:17:45;13.40;99.90
52899;DHT22;38763;53.096;6.062;2024-03-29T13:20:14;13.40;23.70
52899;DHT22;38763;53.096;6.062;2024-03-29T13:22:44;13.30;99.90
52899;DHT22;38763;53.096;6.062;2024-03-29T13:25:17;13.30;1.00
52899;DHT22;38763;53.096;6.062;2024-03-29T13:27:44;13.40;99.90
52899;DHT22;38763;53.096;6.062;2024-03-29T13:30:12;13.30;99.90
52899;DHT22;38763;53.096;6.062;2024-03-29T13:32:41;13.30;99.90
52899;DHT22;38763;53.096;6.062;2024-03-29T13:35:07;13.20;99.90
52899;DHT22;38763;53.096;6.062;2024-03-29T13:37:40;13.10;99.90
52899;DHT22;38763;53.096;6.062;2024-03-29T13:40:07;13.00;99.90
52899;DHT22;38763;53.096;6.062;2024-03-29T13:42:33;13.10;99.90
52899;DHT22;38763;53.096;6.062;2024-03-29T13:44:59;13.20;99.90
52899;DHT22;38763;53.096;6.062;2024-03-29T13:47:25;13.10;99.90
52899;DHT22;38763;53.096;6.062;2024-03-29T13:49:51;13.10;99.90
52899;DHT22;38763;53.096;6.062;2024-03-29T13:52:20;13.20;5.40
52899;DHT22;38763;53.096;6.062;2024-03-29T13:54:46;13.30;1.00
52899;DHT22;38763;53.096;6.062;2024-03-29T13:57:16;13.30;99.90
52899;DHT22;38763;53.096;6.062;2024-03-29T13:59:43;13.20;99.90
52899;DHT22;38763;53.096;6.062;2024-03-29T14:02:11;13.40;99.90
52899;DHT22;38763;53.096;6.062;2024-03-29T14:04:37;13.40;99.90
52899;DHT22;38763;53.096;6.062;2024-03-29T14:07:02;13.40;99.90
52899;DHT22;38763;53.096;6.062;2024-03-29T14:09:32;13.30;99.90
52899;DHT22;38763;53.096;6.062;2024-03-29T14:11:58;13.30;99.90
52899;DHT22;38763;53.096;6.062;2024-03-29T14:14:23;13.40;99.90
52899;DHT22;38763;53.096;6.062;2024-03-29T14:16:49;13.20;99.90
52899;DHT22;38763;53.096;6.062;2024-03-29T14:19:14;13.30;1.00
52899;DHT22;38763;53.096;6.062;2024-03-29T14:21:40;13.40;99.90
52899;DHT22;38763;53.096;6.062;2024-03-29T14:24:06;13.50;99.90
52899;DHT22;38763;53.096;6.062;2024-03-29T14:26:31;13.50;99.90
52899;DHT22;38763;53.096;6.062;2024-03-29T14:28:57;13.60;94.60
52899;DHT22;38763;53.096;6.062;2024-03-29T14:31:23;13.60;1.00
52899;DHT22;38763;53.096;6.062;2024-03-29T14:33:48;13.50;99.90
52899;DHT22;38763;53.096;6.062;2024-03-29T14:36:14;13.60;1.00
52899;DHT22;38763;53.096;6.062;2024-03-29T14:38:41;13.70;1.00
52899;DHT22;38763;53.096;6.062;2024-03-29T14:41:06;13.80;99.90
52899;DHT22;38763;53.096;6.062;2024-03-29T14:43:32;13.80;1.00
52899;DHT22;38763;53.096;6.062;2024-03-29T14:45:57;13.80;1.00
52899;DHT22;38763;53.096;6.062;2024-03-29T14:48:25;13.70;1.00
52899;DHT22;38763;53.096;6.062;2024-03-29T14:50:50;13.60;1.00
52899;DHT22;38763;53.096;6.062;2024-03-29T14:53:16;13.60;1.00
52899;DHT22;38763;53.096;6.062;2024-03-29T14:55:43;13.60;99.90
52899;DHT22;38763;53.096;6.062;2024-03-29T14:58:08;13.60;1.00
52899;DHT22;38763;53.096;6.062;2024-03-29T15:00:34;13.50;99.90
52899;DHT22;38763;53.096;6.062;2024-03-29T15:03:00;13.60;99.90
52899;DHT22;38763;53.096;6.062;2024-03-29T15:05:26;13.70;99.90
52899;DHT22;38763;53.096;6.062;2024-03-29T15:07:52;13.60;74.50
52899;DHT22;38763;53.096;6.062;2024-03-29T15:10:18;13.60;1.00
52899;DHT22;38763;53.096;6.062;2024-03-29T15:12:45;13.40;1.00
52899;DHT22;38763;53.096;6.062;2024-03-29T15:15:13;13.40;1.00
52899;DHT22;38763;53.096;6.062;2024-03-29T15:17:39;13.40;1.00
52899;DHT22;38763;53.096;6.062;2024-03-29T15:20:05;13.40;1.00
52899;DHT22;38763;53.096;6.062;2024-03-29T15:22:37;13.50;1.00
52899;DHT22;38763;53.096;6.062;2024-03-29T15:25:06;13.60;73.10
52899;DHT22;38763;53.096;6.062;2024-03-29T15:27:32;13.60;99.90
52899;DHT22;38763;53.096;6.062;2024-03-29T15:30:17;13.60;1.00
52899;DHT22;38763;53.096;6.062;2024-03-29T15:32:42;13.60;1.00
52899;DHT22;38763;53.096;6.062;2024-03-29T15:35:08;13.60;99.90
52899;DHT22;38763;53.096;6.062;2024-03-29T15:37:35;13.50;1.00
52899;DHT22;38763;53.096;6.062;2024-03-29T15:40:03;13.70;1.00
52899;DHT22;38763;53.096;6.062;2024-03-29T15:42:29;13.60;1.00
52899;DHT22;38763;53.096;6.062;2024-03-29T15:44:55;13.60;1.00
52899;DHT22;38763;53.096;6.062;2024-03-29T15:47:21;13.60;1.00